createdAt,value
2022-08-04T00:00:57.875Z,18.06
2022-08-04T00:03:30.379Z,18.13
2022-08-04T00:06:02.123Z,17.95
2022-08-04T00:08:38.607Z,17.81
2022-08-04T00:11:08.768Z,17.80
2022-08-04T00:13:52.700Z,17.82
2022-08-04T00:16:37.735Z,17.72
2022-08-04T00:19:12.352Z,17.58
2022-08-04T00:21:44.093Z,17.65
2022-08-04T00:24:13.003Z,17.73
2022-08-04T00:26:41.260Z,17.73
2022-08-04T00:29:09.113Z,17.70
2022-08-04T00:31:56.576Z,17.78
2022-08-04T00:34:27.783Z,17.83
2022-08-04T00:36:56.939Z,17.87
2022-08-04T00:39:25.357Z,17.91
2022-08-04T00:42:05.128Z,17.92
2022-08-04T00:44:42.270Z,17.74
2022-08-04T00:47:20.452Z,17.60
2022-08-04T00:50:06.052Z,17.50
2022-08-04T00:52:59.496Z,17.41
2022-08-04T00:55:46.830Z,17.39
2022-08-04T00:58:24.781Z,17.50
2022-08-04T01:00:59.596Z,17.54
2022-08-04T01:03:42.140Z,17.65
2022-08-04T01:06:17.848Z,17.73
2022-08-04T01:09:00.718Z,17.69
2022-08-04T01:11:56.952Z,17.70
2022-08-04T01:14:38.830Z,17.71
2022-08-04T01:17:13.896Z,17.69
2022-08-04T01:20:02.401Z,17.69
2022-08-04T01:23:06.864Z,17.67
2022-08-04T01:25:59.687Z,17.52
2022-08-04T01:28:31.509Z,17.64
2022-08-04T01:31:06.350Z,17.72
2022-08-04T01:34:03.485Z,17.80
2022-08-04T01:36:26.026Z,17.84
2022-08-04T01:38:55.294Z,17.83
2022-08-04T01:41:32.262Z,17.84
2022-08-04T01:44:01.817Z,17.83
2022-08-04T01:46:34.988Z,17.79
2022-08-04T01:49:04.092Z,17.77
2022-08-04T01:51:35.972Z,17.75
2022-08-04T01:54:03.751Z,17.78
2022-08-04T01:56:32.238Z,17.72
2022-08-04T01:59:00.503Z,17.70
2022-08-04T02:01:28.295Z,17.70
2022-08-04T02:04:21.273Z,17.71
2022-08-04T02:06:51.467Z,17.68
2022-08-04T02:09:25.421Z,17.65
2022-08-04T02:12:01.501Z,17.57
2022-08-04T02:14:48.087Z,17.62
2022-08-04T02:17:17.078Z,17.58
2022-08-04T02:20:07.081Z,17.48
2022-08-04T02:22:36.508Z,17.42
2022-08-04T02:25:07.944Z,17.35
2022-08-04T02:28:03.918Z,17.33
2022-08-04T02:30:35.862Z,17.32
2022-08-04T02:33:05.335Z,17.28
2022-08-04T02:35:37.571Z,17.31
2022-08-04T02:38:13.779Z,17.31
2022-08-04T02:40:43.031Z,17.26
2022-08-04T02:43:11.212Z,17.28
2022-08-04T02:45:42.966Z,17.23
2022-08-04T02:48:30.972Z,17.11
2022-08-04T02:51:00.853Z,17.04
2022-08-04T02:53:29.808Z,16.98
2022-08-04T02:55:58.373Z,16.98
2022-08-04T02:58:29.088Z,17.00
2022-08-04T03:00:56.827Z,17.10
2022-08-04T03:03:28.844Z,16.94
2022-08-04T03:06:46.993Z,16.92
2022-08-04T03:09:35.290Z,16.83
2022-08-04T03:12:51.025Z,16.78
2022-08-04T03:15:55.503Z,16.76
2022-08-04T03:18:50.414Z,16.75
2022-08-04T03:21:31.488Z,16.69
2022-08-04T03:24:30.040Z,16.64
2022-08-04T03:27:11.542Z,16.59
2022-08-04T03:30:07.015Z,16.60
2022-08-04T03:33:03.948Z,16.58
2022-08-04T03:35:53.442Z,16.47
2022-08-04T03:38:59.621Z,16.52
2022-08-04T03:41:54.892Z,16.46
2022-08-04T03:44:41.655Z,16.54
2022-08-04T03:47:26.005Z,16.64
2022-08-04T03:50:14.907Z,16.78
2022-08-04T03:53:10.443Z,16.87
2022-08-04T03:55:48.371Z,16.92
2022-08-04T03:58:50.802Z,16.95
2022-08-04T04:01:41.607Z,16.95
2022-08-04T04:04:39.170Z,17.00
2022-08-04T04:07:35.722Z,17.06
2022-08-04T04:10:33.984Z,17.08
2022-08-04T04:13:29.556Z,17.21
2022-08-04T04:16:19.305Z,17.30
2022-08-04T04:19:31.423Z,17.33
2022-08-04T04:22:14.297Z,17.46
2022-08-04T04:24:53.474Z,17.54
2022-08-04T04:27:32.688Z,17.57
2022-08-04T04:30:07.067Z,17.57
2022-08-04T04:32:49.758Z,17.59
2022-08-04T04:35:27.646Z,17.64
2022-08-04T04:38:08.967Z,17.69
2022-08-04T04:40:45.242Z,17.81
2022-08-04T04:43:51.759Z,17.90
2022-08-04T04:46:17.329Z,17.94
2022-08-04T04:48:53.977Z,18.01
2022-08-04T04:51:25.107Z,18.16
2022-08-04T04:54:00.519Z,18.28
2022-08-04T04:56:29.995Z,18.44
2022-08-04T04:58:59.030Z,18.58
2022-08-04T05:02:00.848Z,18.73
2022-08-04T05:05:08.477Z,18.91
2022-08-04T05:07:50.358Z,19.07
2022-08-04T05:10:28.259Z,19.20
2022-08-04T05:14:35.579Z,19.31
2022-08-04T05:16:03.194Z,19.48
2022-08-04T05:18:34.417Z,19.58
2022-08-04T05:21:14.790Z,19.66
2022-08-04T05:23:45.152Z,19.70
2022-08-04T05:26:14.609Z,19.77
2022-08-04T05:28:44.229Z,19.86
2022-08-04T05:31:13.235Z,19.96
2022-08-04T05:33:42.740Z,20.07
2022-08-04T05:36:32.677Z,19.94
2022-08-04T05:39:07.282Z,19.95
2022-08-04T05:41:45.436Z,20.00
2022-08-04T05:44:16.707Z,20.15
2022-08-04T05:46:45.575Z,20.22
2022-08-04T05:49:22.729Z,20.15
2022-08-04T05:51:52.301Z,20.16
2022-08-04T05:54:20.982Z,20.22
2022-08-04T05:56:50.026Z,20.27
2022-08-04T05:59:18.262Z,20.30
2022-08-04T06:01:55.802Z,20.39
2022-08-04T06:04:28.664Z,20.49
2022-08-04T06:06:57.808Z,20.66
2022-08-04T06:09:25.599Z,20.81
2022-08-04T06:12:01.858Z,20.84
2022-08-04T06:14:34.082Z,20.82
2022-08-04T06:17:03.362Z,21.02
2022-08-04T06:19:59.803Z,21.20
2022-08-04T06:22:21.179Z,21.32
2022-08-04T06:24:50.228Z,21.51
2022-08-04T06:27:18.860Z,21.69
2022-08-04T06:29:51.617Z,21.82
2022-08-04T06:32:34.769Z,21.98
2022-08-04T06:35:07.776Z,22.15
2022-08-04T06:37:42.606Z,22.20
2022-08-04T06:40:31.373Z,22.28
2022-08-04T06:43:01.294Z,22.38
2022-08-04T06:45:30.107Z,22.41
2022-08-04T06:47:58.425Z,22.53
2022-08-04T06:51:26.462Z,22.64
2022-08-04T06:53:15.760Z,22.72
2022-08-04T06:55:45.350Z,22.81
2022-08-04T06:58:13.694Z,22.86
2022-08-04T07:00:43.438Z,23.06
2022-08-04T07:03:11.890Z,23.29
2022-08-04T07:05:39.751Z,23.24
2022-08-04T07:08:08.277Z,23.27
2022-08-04T07:10:38.265Z,23.33
2022-08-04T07:13:07.304Z,23.37
2022-08-04T07:15:35.148Z,23.42
2022-08-04T07:18:04.758Z,23.52
2022-08-04T07:20:36.225Z,23.57
2022-08-04T07:23:05.196Z,23.68
2022-08-04T07:26:11.161Z,23.66
2022-08-04T07:28:23.612Z,23.79
2022-08-04T07:30:51.747Z,23.79
2022-08-04T07:33:19.981Z,23.93
2022-08-04T07:36:09.038Z,23.95
2022-08-04T07:38:50.646Z,24.18
2022-08-04T07:41:39.009Z,24.47
2022-08-04T07:44:08.743Z,24.54
2022-08-04T07:46:37.165Z,24.65
2022-08-04T07:49:05.514Z,24.80
2022-08-04T07:51:35.303Z,24.77
2022-08-04T07:54:04.058Z,24.72
2022-08-04T07:56:32.513Z,24.86
2022-08-04T07:59:01.094Z,25.00
2022-08-04T08:01:30.658Z,25.17
2022-08-04T08:04:00.556Z,25.25
2022-08-04T08:06:32.126Z,25.32
2022-08-04T08:09:13.340Z,25.46
2022-08-04T08:12:35.248Z,25.60
2022-08-04T08:14:31.444Z,25.74
2022-08-04T08:17:02.535Z,25.66
2022-08-04T08:19:30.495Z,25.64
2022-08-04T08:21:59.931Z,25.64
2022-08-04T08:24:28.507Z,25.68
2022-08-04T08:26:56.833Z,25.23
2022-08-04T08:29:25.594Z,25.21
2022-08-04T08:31:56.592Z,25.41
2022-08-04T08:34:29.136Z,25.44
2022-08-04T08:37:00.962Z,25.34
2022-08-04T08:39:33.936Z,25.53
2022-08-04T08:42:29.953Z,25.70
2022-08-04T08:45:19.121Z,25.70
2022-08-04T08:48:33.566Z,25.60
2022-08-04T08:51:14.389Z,25.87
2022-08-04T08:53:52.701Z,25.94
2022-08-04T08:56:31.415Z,26.01
2022-08-04T08:59:15.441Z,26.07
2022-08-04T09:01:53.360Z,26.22
2022-08-04T09:04:49.919Z,26.20
2022-08-04T09:07:32.703Z,26.05
2022-08-04T09:10:09.513Z,26.06
2022-08-04T09:12:42.595Z,26.20
2022-08-04T09:15:17.027Z,26.12
2022-08-04T09:17:50.127Z,26.31
2022-08-04T09:20:24.315Z,26.57
2022-08-04T09:22:58.111Z,26.72
2022-08-04T09:25:30.325Z,26.64
2022-08-04T09:28:09.079Z,26.61
2022-08-04T09:30:42.487Z,26.78
2022-08-04T09:33:17.445Z,26.97
2022-08-04T09:35:56.466Z,27.10
2022-08-04T09:38:31.242Z,27.00
2022-08-04T09:41:05.261Z,27.11
2022-08-04T09:44:48.838Z,27.29
2022-08-04T09:46:52.300Z,27.58
2022-08-04T09:49:22.822Z,27.79
2022-08-04T09:52:04.236Z,27.81
2022-08-04T09:54:46.634Z,27.38
2022-08-04T09:57:18.498Z,27.25
2022-08-04T09:59:54.955Z,27.30
2022-08-04T10:02:23.918Z,27.24
2022-08-04T10:04:53.327Z,26.91
2022-08-04T10:07:39.470Z,27.05
2022-08-04T10:10:20.940Z,27.48
2022-08-04T10:13:13.693Z,27.68
2022-08-04T10:15:46.003Z,27.67
2022-08-04T10:18:23.740Z,27.57
2022-08-04T10:21:06.214Z,27.70
2022-08-04T10:23:55.727Z,27.62
2022-08-04T10:26:34.746Z,27.48
2022-08-04T10:29:06.935Z,27.63
2022-08-04T10:31:37.756Z,27.64
2022-08-04T10:34:12.616Z,27.90
2022-08-04T10:36:52.820Z,28.05
2022-08-04T10:39:43.377Z,28.11
2022-08-04T10:42:22.762Z,28.22
2022-08-04T10:45:02.442Z,28.29
2022-08-04T10:47:35.372Z,28.34
2022-08-04T10:50:12.666Z,28.45
2022-08-04T10:52:46.367Z,28.10
2022-08-04T10:55:20.456Z,27.45
2022-08-04T10:57:52.339Z,27.39
2022-08-04T11:00:25.197Z,27.45
2022-08-04T11:02:55.164Z,27.42
2022-08-04T11:05:28.669Z,27.54
2022-08-04T11:07:59.824Z,27.95
2022-08-04T11:10:27.321Z,28.21
2022-08-04T11:12:59.089Z,28.20
2022-08-04T11:15:29.370Z,28.25
2022-08-04T11:17:58.947Z,28.33
2022-08-04T11:20:35.545Z,28.20
2022-08-04T11:23:08.095Z,28.48
2022-08-04T11:25:44.646Z,28.57
2022-08-04T11:28:23.805Z,28.19
2022-08-04T11:30:54.923Z,28.24
2022-08-04T11:33:23.323Z,28.44
2022-08-04T11:35:56.376Z,28.61
2022-08-04T11:38:32.277Z,28.69
2022-08-04T11:41:05.350Z,28.07
2022-08-04T11:43:58.667Z,28.09
2022-08-04T11:46:29.923Z,28.26
2022-08-04T11:48:59.074Z,28.47
2022-08-04T11:51:28.376Z,28.70
2022-08-04T11:53:56.994Z,28.82
2022-08-04T11:56:36.521Z,28.89
2022-08-04T11:59:08.647Z,28.79
2022-08-04T12:01:37.363Z,28.55
2022-08-04T12:04:10.594Z,28.46
2022-08-04T12:06:56.888Z,28.79
2022-08-04T12:09:31.412Z,28.72
2022-08-04T12:12:06.950Z,28.59
2022-08-04T12:14:45.429Z,28.79
2022-08-04T12:17:14.425Z,28.89
2022-08-04T12:20:04.629Z,29.04
2022-08-04T12:22:36.095Z,29.12
2022-08-04T12:25:06.984Z,29.26
2022-08-04T12:27:37.541Z,29.34
2022-08-04T12:31:02.566Z,29.41
2022-08-04T12:33:00.570Z,28.86
2022-08-04T12:35:32.382Z,28.50
2022-08-04T12:38:04.666Z,28.16
2022-08-04T12:40:38.242Z,28.35
2022-08-04T12:43:10.629Z,28.63
2022-08-04T12:45:44.107Z,28.98
2022-08-04T12:48:21.407Z,29.19
2022-08-04T12:50:50.082Z,29.37
2022-08-04T12:53:31.314Z,29.52
2022-08-04T12:56:01.759Z,29.36
2022-08-04T12:58:41.989Z,29.03
2022-08-04T13:02:08.161Z,29.07
2022-08-04T13:04:11.201Z,29.44
2022-08-04T13:06:39.927Z,29.67
2022-08-04T13:09:09.739Z,29.39
2022-08-04T13:11:50.921Z,29.67
2022-08-04T13:14:27.176Z,29.39
2022-08-04T13:17:01.168Z,29.52
2022-08-04T13:19:29.549Z,29.33
2022-08-04T13:22:03.072Z,29.47
2022-08-04T13:24:34.198Z,29.74
2022-08-04T13:27:09.264Z,30.10
2022-08-04T13:30:00.191Z,30.52
2022-08-04T13:32:30.208Z,30.78
2022-08-04T13:34:59.278Z,31.13
2022-08-04T13:37:32.318Z,31.34
2022-08-04T13:40:00.566Z,31.81
2022-08-04T13:42:28.600Z,31.78
2022-08-04T13:44:58.666Z,31.80
2022-08-04T13:47:30.404Z,31.90
2022-08-04T13:50:16.552Z,32.14
2022-08-04T13:52:45.812Z,32.15
2022-08-04T13:55:21.355Z,32.48
2022-08-04T13:57:52.006Z,32.41
2022-08-04T14:00:29.632Z,32.62
2022-08-04T14:03:03.299Z,32.88
2022-08-04T14:05:58.733Z,33.05
2022-08-04T14:08:22.038Z,33.41
2022-08-04T14:10:55.126Z,33.47
2022-08-04T14:13:30.557Z,33.46
2022-08-04T14:16:17.333Z,33.23
2022-08-04T14:18:46.719Z,33.22
2022-08-04T14:21:15.489Z,32.28
2022-08-04T14:23:47.563Z,31.82
2022-08-04T14:26:31.541Z,32.25
2022-08-04T14:29:26.742Z,32.75
2022-08-04T14:32:05.954Z,32.85
2022-08-04T14:34:42.651Z,33.00
2022-08-04T14:37:19.373Z,32.98
2022-08-04T14:40:08.621Z,33.21
2022-08-04T14:42:44.513Z,33.43
2022-08-04T14:45:31.650Z,33.39
2022-08-04T14:47:59.485Z,33.34
2022-08-04T14:50:41.386Z,32.84
2022-08-04T14:53:11.058Z,32.37
2022-08-04T14:55:39.837Z,32.54
2022-08-04T14:58:35.211Z,32.60
2022-08-04T15:00:57.763Z,31.74
2022-08-04T15:03:26.393Z,31.72
2022-08-04T15:06:05.410Z,32.17
2022-08-04T15:08:37.491Z,32.46
2022-08-04T15:11:05.392Z,32.60
2022-08-04T15:13:33.508Z,32.59
2022-08-04T15:16:08.034Z,32.78
2022-08-04T15:18:37.675Z,32.83
2022-08-04T15:21:09.038Z,32.97
2022-08-04T15:23:39.324Z,32.93
2022-08-04T15:26:10.362Z,33.04
2022-08-04T15:28:39.845Z,32.91
2022-08-04T15:31:10.602Z,32.91
2022-08-04T15:33:56.714Z,32.99
2022-08-04T15:36:35.560Z,33.05
2022-08-04T15:39:09.812Z,33.01
2022-08-04T15:41:46.263Z,32.85
2022-08-04T15:44:37.909Z,32.96
2022-08-04T15:47:14.158Z,32.89
2022-08-04T15:49:41.995Z,32.44
2022-08-04T15:52:12.939Z,32.51
2022-08-04T15:54:42.399Z,32.58
2022-08-04T15:57:58.406Z,32.42
2022-08-04T16:00:26.173Z,32.13
2022-08-04T16:02:53.897Z,32.13
2022-08-04T16:05:41.647Z,32.25
2022-08-04T16:08:17.758Z,32.21
2022-08-04T16:10:48.050Z,32.27
2022-08-04T16:13:19.850Z,31.81
2022-08-04T16:15:53.013Z,31.87
2022-08-04T16:18:26.022Z,31.83
2022-08-04T16:20:56.085Z,31.80
2022-08-04T16:24:06.134Z,31.69
2022-08-04T16:26:53.530Z,31.56
2022-08-04T16:29:37.927Z,31.54
2022-08-04T16:32:23.377Z,31.39
2022-08-04T16:34:57.015Z,31.32
2022-08-04T16:37:28.198Z,31.40
2022-08-04T16:40:34.520Z,31.27
2022-08-04T16:43:05.148Z,31.21
2022-08-04T16:45:47.649Z,31.10
2022-08-04T16:48:16.340Z,30.61
2022-08-04T16:50:49.601Z,30.45
2022-08-04T16:53:51.486Z,30.38
2022-08-04T16:56:10.420Z,30.21
2022-08-04T16:58:38.235Z,30.12
2022-08-04T17:01:34.126Z,29.88
2022-08-04T17:04:06.016Z,29.77
2022-08-04T17:06:35.979Z,29.25
2022-08-04T17:09:06.156Z,29.26
2022-08-04T17:11:35.591Z,29.06
2022-08-04T17:14:05.658Z,28.84
2022-08-04T17:16:35.824Z,28.73
2022-08-04T17:19:03.703Z,28.65
2022-08-04T17:21:32.700Z,28.42
2022-08-04T17:24:12.578Z,28.29
2022-08-04T17:26:51.742Z,28.17
2022-08-04T17:29:43.910Z,28.09
2022-08-04T17:32:15.665Z,27.88
2022-08-04T17:34:44.646Z,27.78
2022-08-04T17:37:37.843Z,27.63
2022-08-04T17:40:09.920Z,27.42
2022-08-04T17:42:41.374Z,27.36
2022-08-04T17:47:59.865Z,27.14
2022-08-04T17:50:28.137Z,27.01
2022-08-04T17:53:12.299Z,26.91
2022-08-04T17:55:42.354Z,26.74
2022-08-04T17:58:21.573Z,26.57
2022-08-04T18:01:10.627Z,26.35
2022-08-04T18:03:51.675Z,26.06
2022-08-04T18:06:20.863Z,26.01
2022-08-04T18:08:54.793Z,25.95
2022-08-04T18:11:28.814Z,25.75
2022-08-04T18:14:04.593Z,25.48
2022-08-04T18:16:32.395Z,25.41
2022-08-04T18:19:08.728Z,25.34
2022-08-04T18:21:46.524Z,25.24
2022-08-04T18:24:33.857Z,25.07
2022-08-04T18:27:03.090Z,24.89
2022-08-04T18:29:39.171Z,24.63
2022-08-04T18:32:09.097Z,24.44
2022-08-04T18:34:40.697Z,24.35
2022-08-04T18:38:03.772Z,24.29
2022-08-04T18:40:10.227Z,24.20
2022-08-04T18:42:44.375Z,24.12
2022-08-04T18:45:13.973Z,24.03
2022-08-04T18:47:58.786Z,23.95
2022-08-04T18:50:59.577Z,23.79
2022-08-04T18:53:15.037Z,23.54
2022-08-04T18:55:56.428Z,23.47
2022-08-04T18:58:27.675Z,23.53
2022-08-04T19:01:00.574Z,23.55
2022-08-04T19:03:32.979Z,23.49
2022-08-04T19:06:02.018Z,23.32
2022-08-04T19:08:34.313Z,23.24
2022-08-04T19:11:29.296Z,23.00
2022-08-04T19:13:54.532Z,22.87
2022-08-04T19:16:28.417Z,22.88
2022-08-04T19:18:56.633Z,22.79
2022-08-04T19:22:01.498Z,22.66
2022-08-04T19:27:07.050Z,22.29
2022-08-04T19:29:37.630Z,21.95
2022-08-04T19:32:15.162Z,21.91
2022-08-04T19:34:46.432Z,21.88
2022-08-04T19:37:56.104Z,21.92
2022-08-04T19:40:09.339Z,22.00
2022-08-04T19:42:37.464Z,21.91
2022-08-04T19:45:17.026Z,21.66
2022-08-04T19:48:17.761Z,21.58
2022-08-04T19:50:45.920Z,21.42
2022-08-04T19:53:18.771Z,21.47
2022-08-04T19:55:49.892Z,21.43
2022-08-04T19:58:19.758Z,21.20
2022-08-04T20:00:51.275Z,21.01
2022-08-04T20:03:21.140Z,20.79
2022-08-04T20:05:53.127Z,20.70
2022-08-04T20:08:24.334Z,20.69
2022-08-04T20:13:40.329Z,20.69
2022-08-04T20:16:28.484Z,20.57
2022-08-04T20:19:02.781Z,20.24
2022-08-04T20:21:53.973Z,19.87
2022-08-04T20:24:38.072Z,20.01
2022-08-04T20:27:14.745Z,20.04
2022-08-04T20:29:46.264Z,20.14
2022-08-04T20:32:18.278Z,20.14
2022-08-04T20:34:49.035Z,20.07
2022-08-04T20:37:17.134Z,20.12
2022-08-04T20:39:45.012Z,20.14
2022-08-04T20:42:27.323Z,20.12
2022-08-04T20:45:01.593Z,20.17
2022-08-04T20:47:34.989Z,20.10
2022-08-04T20:50:05.560Z,20.10
2022-08-04T20:52:37.671Z,20.11
2022-08-04T20:55:06.981Z,20.01
2022-08-04T20:57:50.055Z,19.97
2022-08-04T21:00:26.241Z,19.99
2022-08-04T21:02:57.411Z,20.11
2022-08-04T21:05:26.750Z,19.95
2022-08-04T21:07:56.648Z,19.89
2022-08-04T21:10:24.966Z,19.90
2022-08-04T21:12:53.997Z,19.83
2022-08-04T21:15:25.609Z,19.77
2022-08-04T21:17:57.996Z,19.66
2022-08-04T21:20:34.522Z,19.47
2022-08-04T21:23:04.985Z,19.33
2022-08-04T21:25:32.976Z,19.20
2022-08-04T21:28:11.360Z,19.02
2022-08-04T21:30:53.210Z,19.10
2022-08-04T21:33:23.408Z,19.09
2022-08-04T21:35:53.908Z,19.04
2022-08-04T21:38:28.050Z,19.07
2022-08-04T21:40:58.815Z,19.09
2022-08-04T21:43:42.579Z,18.92
2022-08-04T21:46:11.359Z,18.87
2022-08-04T21:48:39.619Z,18.87
2022-08-04T21:54:08.543Z,18.90
2022-08-04T21:56:37.963Z,18.86
2022-08-04T21:59:11.564Z,18.76
2022-08-04T22:01:51.781Z,18.54
2022-08-04T22:04:20.500Z,18.52
2022-08-04T22:09:41.411Z,18.37
2022-08-04T22:12:12.100Z,18.29
2022-08-04T22:14:40.077Z,18.31
2022-08-04T22:17:13.893Z,18.25
2022-08-04T22:19:55.698Z,18.30
2022-08-04T22:22:29.194Z,18.25
2022-08-04T22:24:58.754Z,18.26
2022-08-04T22:27:47.787Z,18.34
2022-08-04T22:30:23.116Z,18.35
2022-08-04T22:32:50.794Z,18.39
2022-08-04T22:35:30.905Z,18.29
2022-08-04T22:38:27.893Z,18.24
2022-08-04T22:40:58.070Z,18.31
2022-08-04T22:43:33.499Z,18.24
2022-08-04T22:46:03.800Z,18.18
2022-08-04T22:48:33.670Z,18.13
2022-08-04T22:51:01.651Z,18.04
2022-08-04T22:53:34.253Z,18.04
2022-08-04T22:56:09.242Z,17.95
2022-08-04T22:58:40.204Z,17.97
2022-08-04T23:01:08.941Z,17.86
2022-08-04T23:03:38.430Z,17.89
2022-08-04T23:06:11.043Z,17.86
2022-08-04T23:08:43.167Z,17.84
2022-08-04T23:11:14.895Z,17.77
2022-08-04T23:13:42.780Z,17.72
2022-08-04T23:16:11.182Z,17.67
2022-08-04T23:18:41.847Z,17.54
2022-08-04T23:21:11.355Z,17.30
2022-08-04T23:23:45.709Z,17.32
2022-08-04T23:26:27.486Z,17.35
2022-08-04T23:28:56.525Z,17.43
2022-08-04T23:31:25.007Z,17.49
2022-08-04T23:34:08.658Z,17.51
2022-08-04T23:36:36.484Z,17.49
2022-08-04T23:39:06.447Z,17.43
2022-08-04T23:41:53.502Z,17.19
2022-08-04T23:44:24.757Z,17.08
2022-08-04T23:46:58.627Z,17.23
2022-08-04T23:49:44.094Z,17.35
2022-08-04T23:52:15.752Z,17.39
2022-08-04T23:54:56.685Z,17.49
2022-08-04T23:58:02.301Z,17.45
